createdAt,value
2022-11-23T00:03:16.727Z,8.65
2022-11-23T00:08:17.180Z,10.38
2022-11-23T00:13:16.104Z,7.70
2022-11-23T00:18:16.441Z,8.50
2022-11-23T00:23:16.747Z,11.27
2022-11-23T00:28:15.723Z,12.57
2022-11-23T00:33:17.051Z,12.93
2022-11-23T00:38:17.318Z,9.43
2022-11-23T00:43:16.221Z,9.00
2022-11-23T00:48:15.271Z,10.82
2022-11-23T00:53:14.213Z,10.07
2022-11-23T00:58:14.467Z,9.90
2022-11-23T01:03:13.331Z,9.60
2022-11-23T01:08:12.340Z,9.45
2022-11-23T01:13:11.287Z,8.65
2022-11-23T01:18:11.598Z,8.88
2022-11-23T01:23:10.659Z,13.63
2022-11-23T01:28:09.838Z,10.20
2022-11-23T01:33:08.791Z,9.75
2022-11-23T01:38:12.585Z,11.93
2022-11-23T01:43:17.751Z,9.80
2022-11-23T01:48:21.374Z,8.77
2022-11-23T01:53:22.359Z,11.38
2022-11-23T01:58:24.709Z,11.93
2022-11-23T02:03:24.367Z,17.65
2022-11-23T02:08:24.599Z,10.23
2022-11-23T02:13:24.481Z,12.52
2022-11-23T02:18:25.301Z,8.30
2022-11-23T02:23:35.138Z,11.10
2022-11-23T02:28:40.071Z,8.88
2022-11-23T02:33:39.548Z,10.25
2022-11-23T02:38:38.621Z,8.70
2022-11-23T02:43:38.925Z,11.05
2022-11-23T02:48:37.768Z,9.65
2022-11-23T02:53:36.562Z,9.18
2022-11-23T02:58:35.473Z,12.55
2022-11-23T03:03:39.643Z,9.32
2022-11-23T03:08:38.571Z,9.48
2022-11-23T03:13:37.427Z,10.85
2022-11-23T03:18:36.320Z,10.65
2022-11-23T03:23:37.462Z,6.95
2022-11-23T03:28:39.448Z,6.47
2022-11-23T03:33:38.776Z,6.28
2022-11-23T03:38:39.089Z,8.07
2022-11-23T03:43:50.328Z,7.93
2022-11-23T03:48:50.143Z,9.68
2022-11-23T03:53:50.648Z,6.55
2022-11-23T03:58:49.960Z,7.72
2022-11-23T04:03:49.075Z,7.03
2022-11-23T04:08:57.524Z,7.25
2022-11-23T04:19:15.246Z,8.95
2022-11-23T04:24:16.205Z,9.95
2022-11-23T04:29:15.911Z,11.13
2022-11-23T04:34:20.711Z,11.73
2022-11-23T04:39:22.991Z,10.32
2022-11-23T04:44:44.592Z,12.27
2022-11-23T04:49:43.720Z,8.30
2022-11-23T04:54:44.434Z,13.90
2022-11-23T04:59:43.876Z,8.73
2022-11-23T05:04:42.934Z,10.10
2022-11-23T05:09:44.591Z,9.60
2022-11-23T05:14:50.021Z,13.95
2022-11-23T05:19:55.944Z,18.85
2022-11-23T05:24:57.237Z,11.85
2022-11-23T05:29:57.854Z,17.40
2022-11-23T05:34:57.024Z,13.90
2022-11-23T05:39:59.926Z,12.05
2022-11-23T05:44:59.111Z,13.30
2022-11-23T05:50:08.196Z,11.40
2022-11-23T05:55:12.039Z,14.20
2022-11-23T06:00:12.400Z,14.02
2022-11-23T06:05:30.208Z,18.35
2022-11-23T06:10:31.027Z,15.95
2022-11-23T06:15:30.064Z,18.33
2022-11-23T06:20:29.569Z,18.63
2022-11-23T06:25:34.679Z,16.38
2022-11-23T06:30:39.244Z,19.50
2022-11-23T06:35:39.586Z,20.77
2022-11-23T06:40:40.040Z,20.63
2022-11-23T06:45:39.345Z,17.98
2022-11-23T06:50:42.324Z,18.70
2022-11-23T06:55:43.027Z,17.17
2022-11-23T07:00:43.608Z,17.53
2022-11-23T07:05:43.324Z,20.30
2022-11-23T07:10:43.636Z,24.40
2022-11-23T07:15:46.094Z,30.63
2022-11-23T07:20:45.569Z,22.50
2022-11-23T07:25:46.548Z,19.25
2022-11-23T07:30:46.214Z,17.17
2022-11-23T07:35:47.605Z,16.70
2022-11-23T07:40:51.569Z,23.05
2022-11-23T07:46:05.970Z,20.73
2022-11-23T07:51:04.822Z,15.60
2022-11-23T07:56:05.138Z,16.13
2022-11-23T08:01:03.957Z,16.95
2022-11-23T08:06:02.671Z,19.05
2022-11-23T08:11:01.444Z,19.83
2022-11-23T08:16:01.908Z,23.58
2022-11-23T08:21:01.595Z,24.38
2022-11-23T08:26:00.473Z,20.50
2022-11-23T08:30:59.229Z,22.67
2022-11-23T08:36:04.211Z,18.10
2022-11-23T08:41:04.185Z,22.30
2022-11-23T08:46:09.305Z,17.95
2022-11-23T08:51:11.504Z,18.85
2022-11-23T08:56:11.156Z,20.05
2022-11-23T09:01:10.657Z,16.55
2022-11-23T09:06:11.128Z,19.92
2022-11-23T09:11:13.354Z,19.52
2022-11-23T09:16:12.121Z,21.20
2022-11-23T09:21:12.465Z,19.02
2022-11-23T09:26:11.680Z,23.13
2022-11-23T09:31:10.354Z,22.75
2022-11-23T09:36:09.756Z,26.10
2022-11-23T09:41:25.456Z,33.22
2022-11-23T09:46:37.113Z,27.50
2022-11-23T09:51:37.956Z,27.88
2022-11-23T09:56:39.438Z,25.63
2022-11-23T10:01:38.206Z,28.00
2022-11-23T10:06:41.653Z,24.45
2022-11-23T10:12:05.304Z,24.50
2022-11-23T10:17:10.912Z,26.63
2022-11-23T10:22:15.921Z,22.70
2022-11-23T10:27:20.700Z,25.05
2022-11-23T10:32:28.722Z,27.02
2022-11-23T10:37:28.078Z,29.63
2022-11-23T10:42:33.549Z,39.90
2022-11-23T10:47:39.179Z,39.05
2022-11-23T10:52:37.918Z,47.83
2022-11-23T10:57:45.487Z,50.55
2022-11-23T11:02:45.561Z,43.70
2022-11-23T11:07:44.598Z,37.13
2022-11-23T11:12:52.654Z,25.50
2022-11-23T11:17:56.936Z,24.55
2022-11-23T11:22:56.670Z,22.40
2022-11-23T11:27:57.929Z,15.18
2022-11-23T11:33:06.662Z,16.60
2022-11-23T11:38:12.993Z,15.93
2022-11-23T11:43:19.743Z,19.77
2022-11-23T11:48:23.811Z,17.73
2022-11-23T11:53:26.432Z,20.42
2022-11-23T11:58:27.427Z,16.65
2022-11-23T12:03:41.189Z,16.75
2022-11-23T12:08:49.115Z,18.08
2022-11-23T12:13:49.907Z,16.13
2022-11-23T12:19:20.357Z,15.98
2022-11-23T12:24:27.135Z,17.92
2022-11-23T12:29:44.120Z,18.35
2022-11-23T12:34:59.878Z,20.40
2022-11-23T12:40:15.517Z,18.55
2022-11-23T12:45:25.201Z,18.65
2022-11-23T12:50:31.513Z,23.75
2022-11-23T12:55:41.652Z,21.55
2022-11-23T13:00:48.244Z,21.42
2022-11-23T13:06:01.513Z,22.90
2022-11-23T13:11:13.716Z,22.92
2022-11-23T13:16:39.042Z,25.70
2022-11-23T13:21:40.228Z,21.35
2022-11-23T13:26:39.019Z,20.25
2022-11-23T13:31:41.660Z,21.75
2022-11-23T13:42:03.075Z,20.08
2022-11-23T13:47:09.139Z,24.58
2022-11-23T13:52:30.329Z,20.95
2022-11-23T13:57:29.417Z,23.45
2022-11-23T14:02:31.573Z,23.58
2022-11-23T14:07:37.274Z,23.27
2022-11-23T14:12:40.681Z,33.20
2022-11-23T14:18:12.503Z,24.50
2022-11-23T14:23:36.198Z,21.13
2022-11-23T14:28:45.863Z,20.45
2022-11-23T14:33:53.290Z,22.65
2022-11-23T14:39:07.489Z,25.65
2022-11-23T14:44:07.653Z,25.90
2022-11-23T14:49:13.882Z,45.40
2022-11-23T14:54:13.275Z,48.97
2022-11-23T14:59:26.131Z,39.47
2022-11-23T15:04:29.237Z,35.00
2022-11-23T15:09:40.617Z,43.50
2022-11-23T15:14:44.959Z,38.30
2022-11-23T15:19:45.240Z,32.25
2022-11-23T15:24:45.053Z,27.80
2022-11-23T15:29:53.805Z,30.02
2022-11-23T15:34:56.182Z,26.42
2022-11-23T15:39:57.175Z,26.80
2022-11-23T15:44:55.979Z,29.27
2022-11-23T15:50:02.028Z,32.42
2022-11-23T15:55:37.633Z,33.80
2022-11-23T16:00:37.711Z,41.63
2022-11-23T16:05:38.579Z,35.08
2022-11-23T16:10:55.159Z,34.85
2022-11-23T16:16:01.397Z,40.63
2022-11-23T16:21:05.062Z,35.22
2022-11-23T16:26:06.780Z,39.78
2022-11-23T16:31:06.338Z,43.03
2022-11-23T16:36:07.786Z,39.78
2022-11-23T16:41:06.594Z,28.25
2022-11-23T16:46:06.384Z,32.00
2022-11-23T16:51:07.057Z,29.05
2022-11-23T16:56:07.484Z,32.13
2022-11-23T17:01:06.613Z,35.15
2022-11-23T17:06:07.090Z,37.15
2022-11-23T17:11:06.190Z,41.70
2022-11-23T17:16:05.464Z,35.63
2022-11-23T17:21:04.379Z,33.45
2022-11-23T17:26:05.390Z,31.52
2022-11-23T17:31:04.432Z,30.17
2022-11-23T17:36:03.405Z,27.95
2022-11-23T17:41:02.276Z,32.78
2022-11-23T17:46:02.562Z,33.88
2022-11-23T17:51:02.631Z,35.53
2022-11-23T17:56:01.520Z,33.80
2022-11-23T18:01:00.436Z,36.70
2022-11-23T18:06:00.604Z,42.53
2022-11-23T18:10:59.711Z,37.72
2022-11-23T18:15:58.591Z,36.72
2022-11-23T18:20:58.865Z,43.85
2022-11-23T18:26:03.570Z,42.33
2022-11-23T18:31:02.497Z,43.70
2022-11-23T18:36:05.417Z,49.65
2022-11-23T18:46:06.838Z,37.88
2022-11-23T18:51:11.908Z,34.17
2022-11-23T18:56:12.363Z,36.53
2022-11-23T19:01:14.899Z,35.92
2022-11-23T19:06:14.869Z,32.17
2022-11-23T19:11:18.054Z,30.55
2022-11-23T19:16:21.054Z,30.35
2022-11-23T19:21:21.424Z,31.58
2022-11-23T19:26:21.887Z,33.75
2022-11-23T19:31:22.630Z,29.50
2022-11-23T19:36:23.028Z,34.15
2022-11-23T19:41:28.412Z,32.13
2022-11-23T19:46:30.449Z,59.65
2022-11-23T19:51:29.590Z,40.88
2022-11-23T19:56:30.615Z,28.55
2022-11-23T20:01:31.981Z,30.73
2022-11-23T20:06:37.183Z,27.05
2022-11-23T20:11:39.705Z,29.63
2022-11-23T20:16:38.742Z,29.33
2022-11-23T20:21:38.278Z,32.05
2022-11-23T20:26:39.179Z,30.50
2022-11-23T20:31:38.811Z,29.98
2022-11-23T20:36:39.122Z,30.02
2022-11-23T20:41:39.778Z,30.90
2022-11-23T20:47:00.702Z,34.45
2022-11-23T20:51:57.585Z,29.20
2022-11-23T20:57:00.395Z,30.70
2022-11-23T21:02:00.225Z,32.83
2022-11-23T21:07:04.155Z,29.67
2022-11-23T21:12:22.189Z,30.35
2022-11-23T21:17:22.906Z,30.88
2022-11-23T21:22:21.661Z,31.10
2022-11-23T21:27:23.536Z,29.95
2022-11-23T21:32:22.988Z,28.73
2022-11-23T21:37:22.556Z,27.92
2022-11-23T21:42:23.742Z,23.05
2022-11-23T21:47:22.472Z,22.75
2022-11-23T21:52:21.175Z,27.02
2022-11-23T21:57:22.316Z,31.17
2022-11-23T22:02:21.884Z,28.48
2022-11-23T22:07:20.674Z,22.77
2022-11-23T22:12:19.538Z,25.23
2022-11-23T22:17:19.711Z,23.77
2022-11-23T22:22:18.444Z,31.75
2022-11-23T22:27:17.165Z,28.20
2022-11-23T22:32:15.925Z,27.08
2022-11-23T22:37:16.189Z,23.77
2022-11-23T22:42:15.739Z,26.13
2022-11-23T22:47:14.500Z,25.17
2022-11-23T22:52:13.308Z,25.20
2022-11-23T22:57:13.495Z,32.95
2022-11-23T23:02:12.300Z,26.98
2022-11-23T23:07:11.211Z,27.05
2022-11-23T23:12:10.064Z,27.20
2022-11-23T23:17:10.219Z,24.70
2022-11-23T23:22:09.331Z,24.58
2022-11-23T23:27:08.163Z,25.50
2022-11-23T23:32:07.385Z,25.20
2022-11-23T23:37:07.535Z,26.33
2022-11-23T23:42:07.598Z,25.92
2022-11-23T23:47:06.441Z,25.58
2022-11-23T23:52:08.705Z,25.98
2022-11-23T23:57:07.357Z,23.03
